Skip Navigation LinksHome page > Weather > Current weather Skip Navigation Links

Current Weather

Honolulu Intl, Honolulu

For information only: do not use for flight planning or navigation.
Latest weather
Observation time Tuesday, October 6, 2015 9:53 AM HST
Local time Tuesday, October 6, 2015 10:11 AM HST
Flight conditions Visual Meteorological Conditions
Wind direction North-Northeast (20°)
Wind speed 13 mph
Wind gusting to 21 mph
Visibility 10 mi.
Sky condition
Ceiling unlimited
Cloud layer few clouds 2,700 ft.
Cloud layer scattered clouds 3,800 ft.
Cloud layer scattered clouds 5,500 ft.
Temperature 83°F
Dewpoint 63°F
Altimeter 29.80 in.Hg
Derived measurements
Relative humidity 51%
Heat index 84°F
Density altitude 1950 ft.
Sea-level pressure 29.79 in.Hg
Automated weather observing station with precipitation discriminator.
METAR PHNL 061953Z 02011G18KT 10SM FEW027 SCT038 SCT055 28/17 A2980 RMK AO2 SLP089 T02830172


Location code

InnerDrive.Weather 4.0.5722.1 Release CLR 4.0.30319.34014
Copyright ©2015 Inner Drive Technology. All rights reserved. Portions Copyright ©1986-2015 David Braverman.

Find weather

Site navigation

Skip Navigation Links

Place info

Page info

PayPal - The safer, easier way to pay online!

Return home.

Copyright ©2015 Inner Drive Technology. Purveyors of fine, hand-crafted computer software. Page printed 2015-10-06T20:11:02 UTC.